Cave Junction, Oregon
Current Conditions -  °F | °C
As of 6:18 AM on Monday 20 Oct 2014 (Local Time) from KBOK Reporting Station
Light Rain Light Rain  
Wind Chill: 55°   Ceiling: 200
Heat Index: 55°   Visibility: 4mi
Dew Point: 55°   Wind: 5mph
Humidity: 100%   Direction: 120°ESE
Pressure: 29.82"   Gusts: NA
Location:  42.16°N, 123.65°W
Report Text: KBOK 201318Z AUTO 12004KT 4SM -RA BR OVC002 13/13 A2982 RMK AO2 P0001
Loading
Personal Weather Stations






























Interactive Weather Map
Tropical Storm Tracking
New forecast layout! Learn more

10-Day Weather Forecast

Advertisements
Track Severe Weather on mobile